createdAt,value
2018-07-28T00:01:58.503Z,50.10
2018-07-28T00:06:01.904Z,50.10
2018-07-28T00:10:08.171Z,50.30
2018-07-28T00:14:11.532Z,50.00
2018-07-28T00:18:14.913Z,49.30
2018-07-28T00:22:18.276Z,51.60
2018-07-28T00:26:21.598Z,50.90
2018-07-28T00:30:24.940Z,50.80
2018-07-28T00:34:28.310Z,50.70
2018-07-28T00:38:31.774Z,51.30
2018-07-28T00:42:35.420Z,50.60
2018-07-28T00:46:38.744Z,54.00
2018-07-28T00:50:42.115Z,50.10
2018-07-28T00:54:45.471Z,50.20
2018-07-28T00:58:48.805Z,50.40
2018-07-28T01:02:52.139Z,51.40
2018-07-28T01:06:55.452Z,50.40
2018-07-28T01:10:58.799Z,51.30
2018-07-28T01:15:02.161Z,51.20
2018-07-28T01:19:05.539Z,52.00
2018-07-28T01:23:08.912Z,51.50
2018-07-28T01:27:12.256Z,54.00
2018-07-28T01:31:15.592Z,52.40
2018-07-28T01:35:18.936Z,50.60
2018-07-28T01:39:22.286Z,51.60
2018-07-28T01:43:25.621Z,54.30
2018-07-28T01:47:28.956Z,52.00
2018-07-28T01:51:32.300Z,51.50
2018-07-28T01:55:35.624Z,52.50
2018-07-28T01:59:39.043Z,54.30
2018-07-28T02:03:42.391Z,52.80
2018-07-28T02:07:45.802Z,52.00
2018-07-28T02:11:49.440Z,53.20
2018-07-28T02:15:52.804Z,52.70
2018-07-28T02:19:56.296Z,51.70
2018-07-28T02:23:59.739Z,52.90
2018-07-28T02:28:03.299Z,52.40
2018-07-28T02:32:06.629Z,54.00
2018-07-28T02:36:09.991Z,54.50
2018-07-28T02:40:13.488Z,52.80
2018-07-28T02:44:16.843Z,53.10
2018-07-28T02:48:20.179Z,55.80
2018-07-28T02:52:23.506Z,53.30
2018-07-28T02:56:26.869Z,54.50
2018-07-28T03:00:30.263Z,54.70
2018-07-28T03:04:33.641Z,55.30
2018-07-28T03:08:37.097Z,53.60
2018-07-28T03:12:40.430Z,53.70
2018-07-28T03:16:43.796Z,53.00
2018-07-28T03:20:47.179Z,56.40
2018-07-28T03:24:50.515Z,54.50
2018-07-28T03:28:53.862Z,54.60
2018-07-28T03:32:57.185Z,54.40
2018-07-28T03:37:00.528Z,54.20
2018-07-28T03:41:03.904Z,53.00
2018-07-28T03:45:08.259Z,53.10
2018-07-28T03:49:11.605Z,54.60
2018-07-28T03:53:14.930Z,55.30
2018-07-28T03:57:18.791Z,55.00
2018-07-28T04:01:22.946Z,54.70
2018-07-28T04:05:26.292Z,54.60
2018-07-28T04:09:29.644Z,55.00
2018-07-28T04:13:32.954Z,54.60
2018-07-28T04:18:06.912Z,56.40
2018-07-28T04:22:10.276Z,57.10
2018-07-28T04:26:13.603Z,56.00
2018-07-28T04:30:16.956Z,54.00
2018-07-28T04:34:20.266Z,58.80
2018-07-28T04:38:23.587Z,56.00
2018-07-28T04:42:26.916Z,55.20
2018-07-28T04:46:31.434Z,54.00
2018-07-28T04:50:34.762Z,57.10
2018-07-28T04:54:38.077Z,54.60
2018-07-28T05:02:44.544Z,55.90
2018-07-28T05:06:47.866Z,54.40
2018-07-28T05:10:51.203Z,55.20
2018-07-28T05:14:54.507Z,55.20
2018-07-28T05:18:58.542Z,56.40
2018-07-28T05:23:01.897Z,55.50
2018-07-28T05:27:05.282Z,55.10
2018-07-28T05:31:08.636Z,56.20
2018-07-28T05:35:11.961Z,55.00
2018-07-28T05:39:15.299Z,55.90
2018-07-28T05:43:18.709Z,54.90
2018-07-28T05:47:22.036Z,57.10
2018-07-28T05:51:25.363Z,55.20
2018-07-28T05:55:28.692Z,56.20
2018-07-28T05:59:32.021Z,56.60
2018-07-28T06:03:35.375Z,57.60
2018-07-28T06:07:38.712Z,59.40
2018-07-28T06:11:42.050Z,58.00
2018-07-28T06:15:45.392Z,57.80
2018-07-28T06:19:48.750Z,58.30
2018-07-28T06:23:52.074Z,56.80
2018-07-28T06:27:55.398Z,57.50
2018-07-28T06:31:59.419Z,57.60
2018-07-28T06:36:02.723Z,57.90
2018-07-28T06:40:06.194Z,58.80
2018-07-28T06:44:09.524Z,56.10
2018-07-28T06:48:12.852Z,56.00
2018-07-28T06:52:16.212Z,54.80
2018-07-28T06:56:19.531Z,55.90
2018-07-28T07:00:25.113Z,56.40
2018-07-28T07:04:28.433Z,56.00
2018-07-28T07:08:31.800Z,58.60
2018-07-28T07:12:35.223Z,54.60
2018-07-28T07:16:51.535Z,54.50
2018-07-28T07:21:03.959Z,54.40
2018-07-28T07:25:07.438Z,56.20
2018-07-28T07:29:11.692Z,54.70
2018-07-28T07:33:15.047Z,54.90
2018-07-28T07:37:18.396Z,57.00
2018-07-28T07:41:22.295Z,54.50
2018-07-28T07:45:25.659Z,54.40
2018-07-28T07:49:29.905Z,55.60
2018-07-28T07:53:33.232Z,55.30
2018-07-28T07:57:36.723Z,55.00
2018-07-28T08:01:40.150Z,55.00
2018-07-28T08:05:43.565Z,54.30
2018-07-28T08:09:46.936Z,54.00
2018-07-28T08:13:50.351Z,54.80
2018-07-28T08:17:53.723Z,53.80
2018-07-28T08:21:57.180Z,54.10
2018-07-28T08:26:00.563Z,53.90
2018-07-28T08:30:05.280Z,54.00
2018-07-28T08:34:08.651Z,53.90
2018-07-28T08:38:11.997Z,53.70
2018-07-28T08:42:15.365Z,53.40
2018-07-28T08:46:18.696Z,53.30
2018-07-28T08:50:22.056Z,53.20
2018-07-28T08:54:25.392Z,53.30
2018-07-28T08:58:28.776Z,53.00
2018-07-28T09:02:32.132Z,52.10
2018-07-28T09:06:35.570Z,52.60
2018-07-28T09:10:39.011Z,52.60
2018-07-28T09:14:42.402Z,52.50
2018-07-28T09:18:45.755Z,51.80
2018-07-28T09:22:49.113Z,52.00
2018-07-28T09:26:52.430Z,52.00
2018-07-28T09:30:55.774Z,52.30
2018-07-28T09:34:59.139Z,51.60
2018-07-28T09:39:02.498Z,51.40
2018-07-28T09:43:06.174Z,51.20
2018-07-28T09:47:09.544Z,51.50
2018-07-28T09:51:13.346Z,51.40
2018-07-28T09:55:16.996Z,50.50
2018-07-28T09:59:20.399Z,50.70
2018-07-28T10:03:23.803Z,48.80
2018-07-28T10:07:27.361Z,48.40
2018-07-28T10:11:32.520Z,47.20
2018-07-28T10:15:36.038Z,45.20
2018-07-28T10:19:39.443Z,46.80
2018-07-28T10:23:42.824Z,45.50
2018-07-28T10:27:46.214Z,46.30
2018-07-28T10:31:49.696Z,46.10
2018-07-28T10:35:53.035Z,46.60
2018-07-28T10:39:57.193Z,45.10
2018-07-28T10:44:00.540Z,46.00
2018-07-28T10:48:03.867Z,46.80
2018-07-28T10:52:07.207Z,46.10
2018-07-28T10:56:10.532Z,46.50
2018-07-28T11:00:13.959Z,47.60
2018-07-28T11:04:17.232Z,50.00
2018-07-28T11:08:20.531Z,49.20
2018-07-28T11:12:23.895Z,49.40
2018-07-28T11:16:27.226Z,49.30
2018-07-28T11:20:30.588Z,49.90
2018-07-28T11:24:33.966Z,49.80
2018-07-28T11:28:37.274Z,49.40
2018-07-28T11:32:51.788Z,49.20
2018-07-28T11:37:06.559Z,49.50
2018-07-28T11:41:21.204Z,49.60
2018-07-28T11:45:24.554Z,48.90
2018-07-28T11:49:28.242Z,48.70
2018-07-28T11:53:31.575Z,49.00
2018-07-28T11:57:34.923Z,49.30
2018-07-28T12:01:38.298Z,49.50
2018-07-28T12:05:41.596Z,49.50
2018-07-28T12:09:44.919Z,49.40
2018-07-28T12:13:48.251Z,49.60
2018-07-28T12:17:51.603Z,49.10
2018-07-28T12:21:55.319Z,49.30
2018-07-28T12:25:59.287Z,49.50
2018-07-28T12:30:02.610Z,49.70
2018-07-28T12:34:05.930Z,50.00
2018-07-28T12:38:09.292Z,50.90
2018-07-28T12:42:12.812Z,51.90
2018-07-28T12:46:16.140Z,51.90
2018-07-28T12:50:19.478Z,53.20
2018-07-28T12:54:22.806Z,54.30
2018-07-28T12:58:26.164Z,53.90
2018-07-28T13:02:29.498Z,56.00
2018-07-28T13:06:32.869Z,55.50
2018-07-28T13:14:39.244Z,55.00
2018-07-28T13:18:42.603Z,53.30
2018-07-28T13:22:46.121Z,53.90
2018-07-28T13:26:49.453Z,53.70
2018-07-28T13:30:52.767Z,54.90
2018-07-28T13:34:56.099Z,54.40
2018-07-28T13:38:59.449Z,54.00
2018-07-28T13:43:02.763Z,53.40
2018-07-28T13:47:06.417Z,54.60
2018-07-28T13:51:09.734Z,53.80
2018-07-28T13:55:13.055Z,54.00
2018-07-28T13:59:16.508Z,53.30
2018-07-28T14:03:21.014Z,52.90
2018-07-28T14:07:24.360Z,53.30
2018-07-28T14:11:27.710Z,52.70
2018-07-28T14:15:31.084Z,51.60
2018-07-28T14:19:34.459Z,51.70
2018-07-28T14:23:37.884Z,51.50
2018-07-28T14:27:41.232Z,51.70
2018-07-28T14:31:44.535Z,51.20
2018-07-28T14:35:47.896Z,51.70
2018-07-28T14:39:51.299Z,51.70
2018-07-28T14:43:54.733Z,51.70
2018-07-28T14:47:58.059Z,51.80
2018-07-28T14:52:01.361Z,51.70
2018-07-28T14:56:04.732Z,51.90
2018-07-28T15:00:08.985Z,51.50
2018-07-28T15:04:12.326Z,50.50
2018-07-28T15:08:15.879Z,52.10
2018-07-28T15:12:19.204Z,51.30
2018-07-28T15:16:22.550Z,51.50
2018-07-28T15:20:25.912Z,50.80
2018-07-28T15:24:29.259Z,51.60
2018-07-28T15:28:32.612Z,51.30
2018-07-28T15:32:35.958Z,51.40
2018-07-28T15:36:39.283Z,51.50
2018-07-28T15:40:42.754Z,51.40
2018-07-28T15:44:46.116Z,51.10
2018-07-28T15:48:49.481Z,50.20
2018-07-28T15:52:52.832Z,49.70
2018-07-28T15:56:56.167Z,50.10
2018-07-28T16:00:59.508Z,50.00
2018-07-28T16:05:02.859Z,50.00
2018-07-28T16:09:08.212Z,50.00
2018-07-28T16:13:11.547Z,50.20
2018-07-28T16:17:14.885Z,49.90
2018-07-28T16:21:18.259Z,50.00
2018-07-28T16:25:21.646Z,50.30
2018-07-28T16:29:25.034Z,50.40
2018-07-28T16:33:28.407Z,51.00
2018-07-28T16:37:31.735Z,51.80
2018-07-28T16:41:35.187Z,51.90
2018-07-28T16:45:38.614Z,52.10
2018-07-28T16:49:41.967Z,51.90
2018-07-28T16:53:46.202Z,51.80
2018-07-28T16:57:49.651Z,51.50
2018-07-28T17:01:52.986Z,50.50
2018-07-28T17:05:56.820Z,50.80
2018-07-28T17:10:00.183Z,50.30
2018-07-28T17:14:03.602Z,50.70
2018-07-28T17:18:06.919Z,50.90
2018-07-28T17:22:10.291Z,50.90
2018-07-28T17:26:13.670Z,51.10
2018-07-28T17:30:17.005Z,49.40
2018-07-28T17:34:20.364Z,48.80
2018-07-28T17:38:23.678Z,50.10
2018-07-28T17:42:27.038Z,52.50
2018-07-28T17:46:30.398Z,53.70
2018-07-28T17:54:36.841Z,56.00
2018-07-28T17:58:40.160Z,56.00
2018-07-28T18:02:43.516Z,58.80
2018-07-28T18:06:46.842Z,53.50
2018-07-28T18:10:50.222Z,55.80
2018-07-28T18:14:53.574Z,57.30
2018-07-28T18:18:57.902Z,55.30
2018-07-28T18:23:01.276Z,60.60
2018-07-28T18:27:04.869Z,55.40
2018-07-28T18:31:08.253Z,55.20
2018-07-28T18:35:11.575Z,54.90
2018-07-28T18:39:14.916Z,57.60
2018-07-28T18:43:18.263Z,57.50
2018-07-28T18:47:21.620Z,55.30
2018-07-28T18:51:25.050Z,58.60
2018-07-28T18:55:28.379Z,60.00
2018-07-28T18:59:31.707Z,60.20
2018-07-28T19:03:35.588Z,59.80
2018-07-28T19:07:39.828Z,59.30
2018-07-28T19:11:43.713Z,57.40
2018-07-28T19:15:47.144Z,59.80
2018-07-28T19:19:50.476Z,56.50
2018-07-28T19:23:59.168Z,59.70
2018-07-28T19:28:08.076Z,59.60
2018-07-28T19:32:11.687Z,58.10
2018-07-28T19:37:22.088Z,61.30
2018-07-28T19:41:25.427Z,58.80
2018-07-28T19:45:28.767Z,60.60
2018-07-28T19:49:32.095Z,61.30
2018-07-28T19:53:35.409Z,61.80
2018-07-28T19:57:38.826Z,58.40
2018-07-28T20:05:45.632Z,59.10
2018-07-28T20:09:48.951Z,63.50
2018-07-28T20:13:52.290Z,58.40
2018-07-28T20:17:55.658Z,62.00
2018-07-28T20:21:59.045Z,58.50
2018-07-28T20:26:03.309Z,59.90
2018-07-28T20:30:06.710Z,62.30
2018-07-28T20:34:10.194Z,61.50
2018-07-28T20:38:13.527Z,64.00
2018-07-28T20:42:16.902Z,64.00
2018-07-28T20:46:20.215Z,63.70
2018-07-28T20:50:23.559Z,66.10
2018-07-28T20:54:27.151Z,65.10
2018-07-28T20:58:30.512Z,60.00
2018-07-28T21:02:33.856Z,60.40
2018-07-28T21:06:37.264Z,65.50
2018-07-28T21:10:40.602Z,59.90
2018-07-28T21:14:43.966Z,66.60
2018-07-28T21:18:47.323Z,66.20
2018-07-28T21:22:50.697Z,60.90
2018-07-28T21:26:54.070Z,59.70
2018-07-28T21:30:57.398Z,65.60
2018-07-28T21:35:00.767Z,62.60
2018-07-28T21:39:05.824Z,63.60
2018-07-28T21:43:09.164Z,61.80
2018-07-28T21:47:12.504Z,60.10
2018-07-28T21:51:15.891Z,63.30
2018-07-28T21:55:19.236Z,63.60
2018-07-28T21:59:22.680Z,63.70
2018-07-28T22:03:27.011Z,61.90
2018-07-28T22:07:30.361Z,63.20
2018-07-28T22:11:33.706Z,61.30
2018-07-28T22:15:37.041Z,61.60
2018-07-28T22:19:40.527Z,61.00
2018-07-28T22:23:44.056Z,61.20
2018-07-28T22:27:47.420Z,61.40
2018-07-28T22:31:50.798Z,62.80
2018-07-28T22:35:54.142Z,62.00
2018-07-28T22:39:57.482Z,66.80
2018-07-28T22:44:00.825Z,68.40
2018-07-28T22:48:04.179Z,61.90
2018-07-28T22:52:07.548Z,63.50
2018-07-28T22:56:10.925Z,63.40
2018-07-28T23:00:14.255Z,65.80
2018-07-28T23:04:17.582Z,62.30
2018-07-28T23:08:20.916Z,65.50
2018-07-28T23:12:24.224Z,63.40
2018-07-28T23:16:27.556Z,63.30
2018-07-28T23:20:30.905Z,63.70
2018-07-28T23:24:34.287Z,64.90
2018-07-28T23:28:37.658Z,65.70
2018-07-28T23:32:41.207Z,65.60
2018-07-28T23:36:44.552Z,66.00
2018-07-28T23:40:47.990Z,62.50
2018-07-28T23:44:51.319Z,63.80
2018-07-28T23:48:54.657Z,62.70
2018-07-28T23:52:57.999Z,67.80
2018-07-28T23:57:01.339Z,62.00
